Meath Environmental Platform

Observations for Trim Patrick St

Time AQI Temp °C Hum % Pres Pa CO μg/m³ H₂S μg/m³ NO μg/m³ NO₂ μg/m³ O₃ μg/m³ SO₂ μg/m³ PM1 μg/m³ PM2.5 μg/m³ PM10 μg/m³
Friday 7 August 2026
08:10 1 18.4 66 2,540 0.34 0 3.6 7.17 7.39 0 2 6.87 7.56
08:08 1 18.2 66 18,299 0.37 0 3.57 7.72 4.03 0 2 6.1 6.71
08:07 1 18.2 67 27,314 0.39 0 4.04 11.98 8.22 0.38 2 6.07 6.68
08:05 1 18 67 37,978 0.4 0 3.19 7.87 8.69 0 2 5.32 5.85
08:04 1 17.9 68 38,460 0.39 0 3.38 11.1 13 0 2 5.99 6.59
08:03 1 17.8 68 38,460 0.41 0 3.18 9.67 6.36 0 2.86 6.02 6.63
08:02 1 17.8 68 38,460 0.41 0 2.92 14.04 7.51 0 2 6.7 7.37
08:00 1 17.5 69 38,460 0.44 0 3.15 14.2 5 0 3.71 6.64 7.31
07:59 1 17.4 70 38,460 0.44 0 2.46 13.65 10.33 0 2 5.87 6.46
07:56 1 17 71 38,460 0.43 0 2.43 14.09 18.65 0 2.86 6.53 7.18
07:55 1 16.9 71 38,460 0.5 0 2.31 13.61 16.32 0 2.86 7.22 7.95
07:54 1 16.7 72 38,460 0.42 0 2.33 13.84 13.38 0 2 6.48 7.13
07:53 1 16.6 72 38,460 0.42 0 2.29 14.78 19.75 0 2 6.44 7.08
07:52 1 16.5 72 38,460 0.4 0 2.33 14.23 19.67 0 2 4.99 5.49
07:51 1 16.4 73 38,460 0.43 0 2.36 15.13 17.49 0 2 5.68 6.25
07:50 1 16.2 73 38,460 0.41 0 2.43 19.93 16.92 0 2 6.38 7.02
07:49 1 16.1 74 38,460 0.39 0 2.4 12.7 22.69 0 2.86 6.35 6.99
07:48 1 16 74 38,460 0.42 0 2.44 17.03 19.59 0 3.71 7.06 7.76
07:47 1 15.9 74 38,460 0.38 0 2.45 16.4 22.05 0 2 5.61 6.17
07:46 1 15.7 75 38,460 0.38 0 2.46 22.81 17.42 0 2 5.57 6.13